Time;durP1;ratioP1;P1;durP2;ratioP2;P2;SDS_P1;SDS_P2;PMS_P1;PMS_P2;Temp;Humidity;BMP_temperature;BMP_pressure;BME280_temperature;BME280_humidity;BME280_pressure;Samples;Min_cycle;Max_cycle;Signal;HPM_P1;HPM_P2
2023/06/20 00:01:38;;;;;;;16.17;9.38;;;;;;;27.91;30.44;101100.72;4980481;28;20054;-85
2023/06/20 00:04:07;;;;;;;13.32;9.00;;;;;;;28.31;30.63;101170.06;4963818;28;20058;-85
2023/06/20 00:06:37;;;;;;;12.98;7.75;;;;;;;27.59;30.86;101064.78;4960939;28;20054;-83
2023/06/20 00:09:07;;;;;;;13.65;8.05;;;;;;;27.69;30.65;101078.63;4966430;28;20465;-84
2023/06/20 00:11:34;;;;;;;11.40;8.98;;;;;;;27.72;30.86;101091.00;4955734;28;20108;-84
2023/06/20 00:14:03;;;;;;;19.35;9.73;;;;;;;27.91;30.97;101108.91;4981130;28;20050;-84
2023/06/20 00:16:31;;;;;;;16.58;9.38;;;;;;;28.28;30.45;101171.38;4970558;28;20145;-83
2023/06/20 00:19:05;;;;;;;14.75;9.45;;;;;;;28.06;30.45;101140.28;4967944;28;20089;-84
2023/06/20 00:21:32;;;;;;;11.05;7.95;;;;;;;28.11;30.23;101148.63;4984895;28;20603;-84
2023/06/20 00:24:09;;;;;;;11.55;9.23;;;;;;;27.36;30.30;101038.38;4962581;28;20628;-84
2023/06/20 00:26:39;;;;;;;16.65;8.23;;;;;;;28.24;29.99;101175.66;4979513;28;20045;-84
2023/06/20 00:29:06;;;;;;;9.23;8.25;;;;;;;27.73;29.99;101098.09;4966745;28;20049;-83
2023/06/20 00:31:37;;;;;;;9.32;8.20;;;;;;;28.19;30.04;101172.81;4965166;28;20472;-83
2023/06/20 00:34:04;;;;;;;10.23;8.75;;;;;;;27.63;29.92;101092.41;4986343;28;20053;-82
2023/06/20 00:36:33;;;;;;;12.95;8.65;;;;;;;28.23;29.98;101184.91;4957365;28;20049;-84
2023/06/20 00:39:02;;;;;;;18.05;9.27;;;;;;;27.04;30.30;101005.13;4966746;28;20088;-84
2023/06/20 00:41:31;;;;;;;12.57;8.45;;;;;;;28.03;29.97;101174.34;4969823;28;20050;-84
2023/06/20 00:44:02;;;;;;;11.05;8.65;;;;;;;27.21;30.47;101046.16;4966371;28;20576;-83
2023/06/20 00:46:40;;;;;;;9.50;8.23;;;;;;;26.90;29.93;100985.47;4981122;28;20050;-83
2023/06/20 00:49:09;;;;;;;11.15;8.32;;;;;;;26.98;30.10;101009.63;4981474;28;20057;-83
2023/06/20 00:51:37;;;;;;;10.63;7.95;;;;;;;27.03;30.02;101023.38;4984139;28;20049;-82
2023/06/20 00:54:10;;;;;;;10.25;7.32;;;;;;;27.32;29.92;101075.34;4965311;28;20371;-83
2023/06/20 00:56:37;;;;;;;12.23;8.00;;;;;;;26.66;30.17;100967.44;4966774;28;20053;-83
2023/06/20 00:59:04;;;;;;;11.52;7.85;;;;;;;27.70;30.13;101131.31;4963417;28;20147;-83
2023/06/20 01:01:37;;;;;;;13.10;8.15;;;;;;;27.85;29.96;101155.41;4979807;28;20244;-83
2023/06/20 01:04:06;;;;;;;11.73;8.25;;;;;;;27.69;29.83;101148.72;4964245;28;20049;-83
2023/06/20 01:06:47;;;;;;;10.77;8.18;;;;;;;27.93;29.97;101185.03;4987262;28;20053;-83
2023/06/20 01:09:26;;;;;;;10.35;8.38;;;;;;;28.00;29.63;101184.94;4962475;28;20592;-82
2023/06/20 01:12:16;;;;;;;10.98;8.85;;;;;;;27.84;30.38;101181.00;4984932;28;20471;-82
2023/06/20 01:14:52;;;;;;;14.57;7.95;;;;;;;27.84;30.70;101176.41;4963503;28;20532;-84
2023/06/20 01:17:31;;;;;;;12.38;8.75;;;;;;;27.83;30.66;101180.19;4970954;28;20054;-83
2023/06/20 01:20:13;;;;;;;11.85;8.45;;;;;;;27.86;30.20;101181.59;4966423;28;20052;-83
2023/06/20 01:22:41;;;;;;;12.77;7.70;;;;;;;27.44;30.40;101125.22;4984845;28;20050;-83
2023/06/20 01:25:38;;;;;;;11.02;8.07;;;;;;;27.23;30.59;101101.25;4963604;28;20061;-82
2023/06/20 01:28:12;;;;;;;9.00;8.05;;;;;;;27.75;30.44;101183.25;4978835;28;20465;-83
2023/06/20 01:30:48;;;;;;;10.32;8.98;;;;;;;27.42;30.80;101127.38;4979699;28;20393;-82
2023/06/20 01:33:22;;;;;;;11.85;8.10;;;;;;;27.83;30.41;101190.28;4963259;28;20054;-82
2023/06/20 01:35:49;;;;;;;13.90;8.88;;;;;;;27.75;30.44;101185.97;4963237;28;20045;-81
2023/06/20 01:38:24;;;;;;;14.35;8.20;;;;;;;27.53;30.13;101141.25;4979409;28;20377;-82
2023/06/20 01:40:52;;;;;;;11.90;8.68;;;;;;;27.74;30.40;101176.09;4966309;28;20492;-83
2023/06/20 01:43:22;;;;;;;13.70;8.45;;;;;;;27.41;30.57;101139.34;4989764;28;20049;-82
2023/06/20 01:45:54;;;;;;;13.85;8.82;;;;;;;27.68;30.54;101183.34;4983430;28;20065;-82
2023/06/20 01:48:25;;;;;;;16.75;8.90;;;;;;;27.72;30.61;101191.91;4990448;28;20052;-82
2023/06/20 01:50:55;;;;;;;19.38;8.55;;;;;;;26.96;31.04;101093.47;4967212;28;20050;-82
2023/06/20 01:53:27;;;;;;;14.45;7.72;;;;;;;27.58;30.84;101193.19;4985666;28;20081;-82
2023/06/20 01:56:03;;;;;;;10.13;8.20;;;;;;;26.94;31.03;101090.16;4970408;28;20404;-81
2023/06/20 01:58:34;;;;;;;14.35;8.20;;;;;;;26.28;30.96;100983.03;4965135;28;20042;-82
2023/06/20 02:01:13;;;;;;;13.98;8.60;;;;;;;26.95;31.98;101113.63;4982067;28;20496;-82
2023/06/20 02:03:41;;;;;;;13.50;8.45;;;;;;;27.39;31.73;101185.09;4961884;28;20512;-83
2023/06/20 02:06:11;;;;;;;13.15;8.77;;;;;;;26.90;32.29;101110.78;4965621;28;20069;-82
2023/06/20 02:08:40;;;;;;;12.25;9.82;;;;;;;27.04;32.51;101150.38;4968441;28;20132;-82
2023/06/20 02:11:08;;;;;;;13.73;8.88;;;;;;;26.90;32.68;101140.75;4988432;28;20046;-83
2023/06/20 02:13:36;;;;;;;10.93;8.18;;;;;;;26.94;32.39;101143.81;4968952;28;20077;-83
2023/06/20 02:16:08;;;;;;;13.05;9.30;;;;;;;26.18;32.42;101016.25;4957675;28;20137;-83
2023/06/20 02:18:35;;;;;;;10.85;8.75;;;;;;;25.91;32.26;100982.31;4988493;28;20080;-82
2023/06/20 02:21:09;;;;;;;11.80;8.32;;;;;;;26.22;32.34;101038.41;4982270;28;20062;-82
2023/06/20 02:23:39;;;;;;;13.00;9.00;;;;;;;26.23;32.62;101059.94;4968516;28;20076;-83
2023/06/20 02:26:11;;;;;;;15.38;8.82;;;;;;;26.75;32.59;101146.63;4983130;28;20050;-83
2023/06/20 02:28:48;;;;;;;9.85;8.75;;;;;;;26.92;32.78;101174.03;4971199;28;20081;-82
2023/06/20 02:31:24;;;;;;;14.80;9.77;;;;;;;26.70;32.96;101151.06;4970765;28;20132;-83
2023/06/20 02:33:54;;;;;;;13.52;9.50;;;;;;;26.89;32.79;101185.38;4987943;28;20173;-83
2023/06/20 02:36:25;;;;;;;14.75;9.30;;;;;;;26.91;32.66;101188.69;4982335;28;20054;-83
2023/06/20 02:38:57;;;;;;;15.10;9.13;;;;;;;26.81;32.83;101167.47;4984283;28;20407;-83
2023/06/20 02:41:27;;;;;;;12.18;9.38;;;;;;;26.90;33.03;101188.94;4985979;28;20077;-84
2023/06/20 02:43:54;;;;;;;11.77;8.80;;;;;;;26.74;32.58;101163.16;4978509;28;20042;-83
2023/06/20 02:46:58;;;;;;;15.13;9.23;;;;;;;26.90;32.33;101181.59;4986101;28;20068;-83
2023/06/20 02:49:47;;;;;;;10.80;8.30;;;;;;;26.92;32.15;101179.47;4978155;28;20042;-83
2023/06/20 02:52:31;;;;;;;13.15;8.65;;;;;;;25.99;31.91;101033.66;4983901;28;20061;-82
2023/06/20 02:55:01;;;;;;;10.98;8.63;;;;;;;26.90;32.14;101192.50;4978373;28;20046;-82
2023/06/20 02:57:31;;;;;;;10.20;8.55;;;;;;;26.76;32.08;101172.78;4979782;28;20499;-83
2023/06/20 03:00:09;;;;;;;10.27;8.97;;;;;;;26.32;32.42;101108.63;4982736;28;20546;-83
2023/06/20 03:02:55;;;;;;;11.77;7.45;;;;;;;26.66;32.27;101172.50;4980926;28;20328;-82
2023/06/20 03:05:28;;;;;;;10.75;8.45;;;;;;;26.64;32.41;101172.72;4978641;28;20448;-82
2023/06/20 03:07:59;;;;;;;11.95;8.70;;;;;;;26.70;32.63;101198.22;4985474;28;20060;-83
2023/06/20 03:10:26;;;;;;;12.65;9.13;;;;;;;26.73;32.61;101205.09;4981114;28;20054;-82
2023/06/20 03:12:54;;;;;;;13.20;8.18;;;;;;;26.12;33.09;101114.28;4980584;28;20049;-82
2023/06/20 03:15:22;;;;;;;12.77;8.45;;;;;;;26.54;33.26;101207.81;4986597;28;20053;-82
2023/06/20 03:17:49;;;;;;;15.38;8.48;;;;;;;26.31;33.48;101164.09;4982515;28;20491;-84
2023/06/20 03:20:19;;;;;;;10.68;8.30;;;;;;;26.38;33.43;101173.00;4975143;28;20045;-83
2023/06/20 03:22:46;;;;;;;11.40;8.90;;;;;;;26.49;33.27;101218.53;4982297;28;20137;-82
2023/06/20 03:25:13;;;;;;;12.70;8.25;;;;;;;26.32;33.71;101201.16;4970712;28;20042;-82
2023/06/20 03:27:44;;;;;;;12.63;7.80;;;;;;;26.47;33.94;101220.66;4929151;28;20057;-82
2023/06/20 03:30:22;;;;;;;10.80;8.38;;;;;;;26.29;34.28;101202.44;4940987;28;20141;-82
2023/06/20 03:32:48;;;;;;;11.30;7.90;;;;;;;26.14;33.85;101172.03;4973152;28;20046;-83
2023/06/20 03:35:19;;;;;;;12.80;8.73;;;;;;;26.38;33.80;101222.00;4979565;28;20053;-83
2023/06/20 03:37:49;;;;;;;11.35;8.52;;;;;;;26.20;34.00;101210.06;4940522;28;20315;-83
2023/06/20 03:40:16;;;;;;;17.65;8.55;;;;;;;26.28;34.17;101238.03;4947305;28;20100;-82
2023/06/20 03:42:46;;;;;;;11.07;8.65;;;;;;;26.29;34.24;101251.41;4994507;28;20431;-83
2023/06/20 03:45:13;;;;;;;12.55;8.75;;;;;;;26.12;34.54;101229.41;4985684;28;20050;-83
2023/06/20 03:47:40;;;;;;;13.30;8.90;;;;;;;26.19;34.45;101246.50;4977518;28;20046;-83
2023/06/20 03:50:07;;;;;;;18.10;9.20;;;;;;;26.01;34.62;101216.53;4956903;28;20046;-83
2023/06/20 03:52:34;;;;;;;12.05;8.88;;;;;;;26.20;34.80;101252.75;4973258;28;20413;-83
2023/06/20 03:55:01;;;;;;;10.57;8.77;;;;;;;26.04;34.73;101232.38;4976636;28;20119;-83
2023/06/20 03:57:28;;;;;;;17.13;9.40;;;;;;;26.16;34.75;101263.25;4978152;28;20128;-83
2023/06/20 03:59:55;;;;;;;10.63;8.23;;;;;;;26.13;34.39;101257.44;4978070;28;20050;-83
2023/06/20 04:02:22;;;;;;;13.57;8.75;;;;;;;25.97;34.35;101237.06;4977154;28;20477;-83
2023/06/20 04:04:50;;;;;;;11.73;8.45;;;;;;;26.16;34.23;101263.25;4972520;28;20409;-83
2023/06/20 04:07:20;;;;;;;16.33;8.93;;;;;;;25.52;34.25;101170.06;5000640;28;20049;-83
2023/06/20 04:09:50;;;;;;;11.77;8.43;;;;;;;26.18;33.84;101277.47;4976495;28;20535;-83
2023/06/20 04:12:16;;;;;;;13.63;9.15;;;;;;;26.14;34.06;101276.28;4989192;28;20060;-83
2023/06/20 04:14:43;;;;;;;11.88;9.23;;;;;;;26.05;34.62;101266.72;4988820;28;20073;-81
2023/06/20 04:17:10;;;;;;;15.13;8.20;;;;;;;26.07;34.42;101264.63;4979159;28;20100;-82
2023/06/20 04:19:37;;;;;;;13.43;8.10;;;;;;;25.79;34.05;101211.47;4938469;28;20112;-82
2023/06/20 04:22:04;;;;;;;12.57;8.80;;;;;;;26.11;34.40;101265.81;4980269;28;20452;-82
2023/06/20 04:24:32;;;;;;;10.13;8.25;;;;;;;25.95;34.36;101247.34;4986926;28;20153;-82
2023/06/20 04:26:59;;;;;;;14.18;8.52;;;;;;;26.09;33.80;101248.88;4981025;28;20212;-82
2023/06/20 04:29:29;;;;;;;17.77;8.75;;;;;;;26.09;34.80;101262.47;4984503;28;20057;-82
2023/06/20 04:31:57;;;;;;;11.00;8.27;;;;;;;26.07;34.43;101256.44;4956590;28;20209;-83
2023/06/20 04:34:25;;;;;;;16.60;9.93;;;;;;;25.82;34.84;101226.50;4974936;28;20092;-81
2023/06/20 04:36:52;;;;;;;11.82;8.77;;;;;;;25.49;35.06;101164.25;4983068;28;20103;-82
2023/06/20 04:39:21;;;;;;;13.57;8.35;;;;;;;25.79;35.12;101205.19;4961087;28;20054;-82
2023/06/20 04:41:51;;;;;;;14.65;8.82;;;;;;;25.78;35.34;101207.09;4993306;28;20065;-82
2023/06/20 04:44:19;;;;;;;13.82;8.60;;;;;;;25.66;35.67;101194.44;4987724;28;20054;-82
2023/06/20 04:46:46;;;;;;;11.90;8.57;;;;;;;25.40;36.01;101135.69;4968085;28;20050;-82
2023/06/20 04:49:16;;;;;;;14.18;8.77;;;;;;;25.35;35.64;101123.59;4988484;28;20488;-82
2023/06/20 04:51:43;;;;;;;10.20;8.93;;;;;;;25.90;36.35;101211.81;4982259;28;20046;-83
2023/06/20 04:54:10;;;;;;;12.18;9.00;;;;;;;26.10;35.79;101236.13;4977365;28;20447;-82
2023/06/20 04:56:40;;;;;;;12.48;8.73;;;;;;;26.08;35.78;101220.00;4984820;28;20050;-81
2023/06/20 04:59:08;;;;;;;10.43;8.25;;;;;;;25.74;36.02;101166.97;4985572;28;20046;-82
2023/06/20 05:01:40;;;;;;;12.15;8.35;;;;;;;25.28;35.94;101087.47;4982868;28;20567;-82
2023/06/20 05:04:07;;;;;;;14.15;10.75;;;;;;;26.28;36.69;101248.91;4976832;28;20444;-82
2023/06/20 05:06:34;;;;;;;11.90;9.18;;;;;;;26.33;36.58;101251.78;4963612;28;20065;-82
2023/06/20 05:09:01;;;;;;;14.13;8.98;;;;;;;26.34;36.49;101237.16;4964349;28;20077;-82
2023/06/20 05:11:31;;;;;;;10.27;8.40;;;;;;;26.21;36.99;101202.72;4938086;28;20702;-83
2023/06/20 05:13:58;;;;;;;15.70;9.35;;;;;;;25.90;36.54;101157.41;4981953;28;20496;-83
2023/06/20 05:16:28;;;;;;;14.52;9.52;;;;;;;26.30;36.79;101220.41;4972877;28;20046;-82
2023/06/20 05:18:55;;;;;;;12.32;9.43;;;;;;;26.48;36.97;101237.81;4965139;28;20452;-84
2023/06/20 05:21:22;;;;;;;14.52;9.70;;;;;;;26.62;37.46;101252.97;4950090;28;20068;-83
2023/06/20 05:23:49;;;;;;;12.77;9.00;;;;;;;26.62;37.30;101239.34;4960665;28;20046;-83
2023/06/20 05:26:15;;;;;;;17.27;8.65;;;;;;;25.44;37.33;101044.47;4964457;28;20511;-82
2023/06/20 05:28:44;;;;;;;12.45;9.30;;;;;;;26.10;37.52;101147.16;4965206;28;20060;-82
2023/06/20 05:31:11;;;;;;;14.85;9.07;;;;;;;26.28;37.40;101170.00;4948388;28;20456;-82
2023/06/20 05:33:38;;;;;;;11.25;9.40;;;;;;;26.47;36.61;101179.81;4960376;28;20053;-82
2023/06/20 05:36:05;;;;;;;12.65;8.18;;;;;;;26.54;36.77;101183.31;4983471;28;20072;-81
2023/06/20 05:38:37;;;;;;;12.88;9.02;;;;;;;27.05;36.83;101250.13;4978934;28;20092;-82
2023/06/20 05:41:04;;;;;;;14.32;10.18;;;;;;;27.12;36.83;101258.22;4957885;28;20499;-82
2023/06/20 05:43:38;;;;;;;12.32;9.30;;;;;;;26.77;36.35;101193.50;4967935;28;20634;-82
2023/06/20 05:46:05;;;;;;;14.43;8.98;;;;;;;26.89;36.62;101207.16;4985942;28;20174;-83
2023/06/20 05:48:34;;;;;;;13.15;9.13;;;;;;;27.16;36.40;101242.22;4966790;28;20191;-82
2023/06/20 05:51:06;;;;;;;13.77;8.70;;;;;;;27.26;36.60;101231.66;4988694;28;20479;-83
2023/06/20 05:53:32;;;;;;;15.80;9.80;;;;;;;27.01;36.08;101194.41;4990686;28;20547;-81
2023/06/20 05:56:02;;;;;;;16.00;9.30;;;;;;;27.55;35.59;101253.63;4984970;28;20054;-83
2023/06/20 05:58:29;;;;;;;13.45;8.38;;;;;;;27.54;35.85;101241.06;4973656;28;20590;-82
2023/06/20 06:00:56;;;;;;;16.60;9.07;;;;;;;27.78;34.44;101269.22;4986497;28;20046;-83
2023/06/20 06:03:23;;;;;;;12.32;9.07;;;;;;;27.75;34.25;101254.16;4984303;28;20108;-77
2023/06/20 06:05:51;;;;;;;10.70;9.02;;;;;;;27.69;33.82;101236.00;4961945;28;20058;-82
2023/06/20 06:08:19;;;;;;;16.40;9.57;;;;;;;27.89;34.34;101257.50;4974724;28;20038;-81
2023/06/20 06:10:46;;;;;;;15.05;9.43;;;;;;;27.69;35.10;101236.00;4964249;28;20328;-82
2023/06/20 06:13:17;;;;;;;12.13;9.38;;;;;;;27.95;35.24;101267.50;4914822;28;20055;-81
2023/06/20 06:15:43;;;;;;;13.80;8.90;;;;;;;27.77;35.63;101232.94;4968918;28;20372;-82
2023/06/20 06:18:26;;;;;;;17.88;9.45;;;;;;;27.64;35.98;101208.59;4980337;28;20573;-81
2023/06/20 06:20:57;;;;;;;16.20;8.77;;;;;;;28.07;36.26;101273.78;4983237;28;20045;-80
2023/06/20 06:23:29;;;;;;;12.68;8.55;;;;;;;28.24;34.74;101273.91;4951456;28;20464;-81
2023/06/20 06:25:58;;;;;;;9.88;8.63;;;;;;;28.24;34.14;101279.38;4964650;28;20140;-81
2023/06/20 06:28:28;;;;;;;11.45;8.70;;;;;;;27.80;33.83;101201.63;5000462;28;20898;-81
2023/06/20 06:30:58;;;;;;;12.32;9.07;;;;;;;28.17;33.77;101265.00;5002962;28;20392;-81
2023/06/20 06:33:28;;;;;;;17.77;9.57;;;;;;;28.30;33.78;101281.16;4992259;28;20103;-81
2023/06/20 06:35:56;;;;;;;14.18;10.05;;;;;;;27.87;34.56;101203.19;5001603;28;20411;-80
2023/06/20 06:38:25;;;;;;;19.92;12.18;;;;;;;28.38;33.44;101268.22;4995720;28;20155;-82
2023/06/20 06:40:56;;;;;;;18.40;12.32;;;;;;;28.49;33.39;101286.50;4992681;28;20081;-81
2023/06/20 06:43:23;;;;;;;18.75;12.68;;;;;;;28.40;34.28;101282.44;4989332;28;20064;-81
2023/06/20 06:45:57;;;;;;;19.48;12.75;;;;;;;28.45;33.98;101288.03;4993069;28;20092;-81
2023/06/20 06:48:27;;;;;;;15.68;11.82;;;;;;;28.24;34.74;101252.06;4996378;28;20144;-80
2023/06/20 06:50:56;;;;;;;17.58;11.57;;;;;;;28.42;35.17;101272.13;5010546;28;20142;-82
2023/06/20 06:53:25;;;;;;;14.43;11.80;;;;;;;28.30;34.96;101251.13;4996094;28;20054;-81
2023/06/20 06:55:55;;;;;;;14.63;11.02;;;;;;;28.50;35.07;101277.25;4997552;28;20263;-81
2023/06/20 06:58:25;;;;;;;13.50;10.20;;;;;;;28.34;34.51;101238.66;5007976;28;20453;-81
2023/06/20 07:00:52;;;;;;;16.05;11.52;;;;;;;28.40;34.85;101266.06;5000583;28;20060;-83
2023/06/20 07:03:24;;;;;;;26.23;12.32;;;;;;;28.40;35.91;101272.38;5009971;28;20061;-83
2023/06/20 07:05:51;;;;;;;24.17;11.90;;;;;;;28.56;36.07;101298.13;5001001;28;20057;-82
2023/06/20 07:08:18;;;;;;;17.95;11.45;;;;;;;28.45;36.33;101277.09;5002764;28;20487;-81
2023/06/20 07:10:46;;;;;;;17.45;11.70;;;;;;;28.62;34.87;101269.88;4988463;28;20045;-81
2023/06/20 07:13:16;;;;;;;15.93;10.85;;;;;;;28.67;35.19;101282.81;4991396;28;20046;-81
2023/06/20 07:15:43;;;;;;;13.18;10.70;;;;;;;28.58;35.31;101257.78;4995090;28;20224;-81
2023/06/20 07:18:11;;;;;;;16.30;10.23;;;;;;;28.79;35.38;101296.44;5008469;28;20063;-81
2023/06/20 07:20:39;;;;;;;15.35;10.25;;;;;;;28.77;36.11;101294.78;4991111;28;20275;-82
2023/06/20 07:23:10;;;;;;;13.48;10.55;;;;;;;28.09;35.34;101167.13;5009051;28;20050;-82
2023/06/20 07:25:39;;;;;;;17.27;10.25;;;;;;;29.10;35.35;101325.25;5007236;28;20134;-82
2023/06/20 07:28:08;;;;;;;16.27;9.93;;;;;;;28.96;35.29;101297.38;5012910;28;20430;-83
2023/06/20 07:30:35;;;;;;;12.75;10.25;;;;;;;28.73;35.96;101266.28;5012312;28;20553;-82
2023/06/20 07:33:07;;;;;;;17.10;10.48;;;;;;;28.93;34.97;101271.34;5009232;28;20427;-82
2023/06/20 07:35:36;;;;;;;17.52;11.35;;;;;;;29.03;33.75;101270.72;4986747;28;20102;-82
2023/06/20 07:38:02;;;;;;;15.98;10.00;;;;;;;29.24;34.44;101299.28;4986541;28;20049;-83
2023/06/20 07:40:29;;;;;;;12.75;9.45;;;;;;;29.23;34.08;101291.34;5003275;28;20693;-83
2023/06/20 07:42:56;;;;;;;12.88;10.05;;;;;;;29.42;33.72;101308.38;4987328;28;20129;-83
2023/06/20 07:45:25;;;;;;;15.55;10.40;;;;;;;29.12;33.70;101282.94;4986884;28;20121;-82
2023/06/20 07:47:53;;;;;;;13.10;10.32;;;;;;;29.28;34.67;101316.06;4982972;28;20057;-83
2023/06/20 07:50:26;;;;;;;16.23;9.88;;;;;;;29.14;33.66;101286.25;5001264;28;20492;-83
2023/06/20 07:52:53;;;;;;;13.43;9.90;;;;;;;29.48;33.07;101327.38;4999798;28;20084;-82
2023/06/20 07:55:20;;;;;;;13.23;9.52;;;;;;;29.40;34.10;101323.13;4980216;28;20259;-82
2023/06/20 07:57:56;;;;;;;16.63;10.13;;;;;;;29.31;34.06;101318.31;5000711;28;20234;-82
2023/06/20 08:00:24;;;;;;;12.30;9.23;;;;;;;29.43;33.09;101327.28;4980402;28;20046;-83
2023/06/20 08:02:52;;;;;;;13.07;10.45;;;;;;;28.75;33.72;101204.03;4998474;28;20076;-83
2023/06/20 08:05:19;;;;;;;11.55;9.73;;;;;;;29.07;33.58;101255.50;4999197;28;20046;-83
2023/06/20 08:07:47;;;;;;;13.90;10.30;;;;;;;29.60;33.61;101336.34;4978014;28;20099;-83
2023/06/20 08:10:17;;;;;;;13.18;9.80;;;;;;;29.19;33.68;101280.06;4983965;28;20426;-82
2023/06/20 08:12:47;;;;;;;13.88;9.82;;;;;;;29.28;33.74;101277.78;4993704;28;20049;-84
2023/06/20 08:15:14;;;;;;;17.60;10.13;;;;;;;28.45;33.98;101151.47;4978200;28;20053;-84
2023/06/20 08:17:41;;;;;;;12.77;9.60;;;;;;;28.97;34.16;101227.97;4996699;28;20053;-82
2023/06/20 08:20:11;;;;;;;17.42;9.43;;;;;;;29.22;33.98;101267.81;4957863;28;20057;-83
2023/06/20 08:22:38;;;;;;;14.38;9.85;;;;;;;29.34;33.18;101276.78;5005914;28;20253;-83
2023/06/20 08:25:05;;;;;;;12.88;9.82;;;;;;;29.66;33.32;101330.97;4995203;28;20042;-83
2023/06/20 08:27:32;;;;;;;16.13;10.45;;;;;;;29.39;32.64;101257.72;4998123;28;20059;-82
2023/06/20 08:29:59;;;;;;;17.85;9.52;;;;;;;29.79;32.75;101336.19;4999400;28;20115;-83
2023/06/20 08:32:26;;;;;;;16.45;9.40;;;;;;;29.46;31.27;101269.34;4971751;28;20046;-82
2023/06/20 08:34:53;;;;;;;12.88;9.90;;;;;;;29.92;32.03;101333.09;5000307;28;20407;-82
2023/06/20 08:37:24;;;;;;;17.48;9.55;;;;;;;29.52;32.82;101262.91;4969263;28;20087;-80
2023/06/20 08:39:54;;;;;;;16.02;10.60;;;;;;;29.42;32.91;101240.00;4975961;28;20055;-82
2023/06/20 08:42:24;;;;;;;12.10;10.23;;;;;;;30.10;33.02;101340.25;4987189;28;20084;-81
2023/06/20 08:44:51;;;;;;;14.60;9.40;;;;;;;29.50;33.83;101248.66;4998581;28;20064;-82
2023/06/20 08:47:24;;;;;;;11.23;9.10;;;;;;;29.68;33.32;101266.75;4987998;28;20775;-82
2023/06/20 08:49:52;;;;;;;11.43;9.18;;;;;;;29.32;33.06;101213.31;4976689;28;20901;-83
2023/06/20 08:52:26;;;;;;;15.20;9.88;;;;;;;29.92;31.62;101278.38;4981532;28;20132;-83
2023/06/20 08:54:54;;;;;;;14.05;9.38;;;;;;;29.78;31.73;101239.59;4984986;28;20053;-81
2023/06/20 08:57:27;;;;;;;13.68;9.63;;;;;;;30.31;32.87;101326.91;4977680;28;20041;-83
2023/06/20 08:59:55;;;;;;;13.43;9.77;;;;;;;29.72;32.65;101223.31;5001586;28;20534;-84
2023/06/20 09:02:23;;;;;;;11.05;9.32;;;;;;;30.47;32.32;101339.75;4998327;28;20075;-83
2023/06/20 09:05:02;;;;;;;16.25;10.65;;;;;;;30.37;32.57;101329.47;4979074;28;20521;-83
2023/06/20 09:07:38;;;;;;;10.20;9.10;;;;;;;30.45;32.01;101339.19;5012956;28;20099;-83
2023/06/20 09:10:06;;;;;;;12.57;9.60;;;;;;;29.91;32.08;101260.31;4979081;28;20176;-82
2023/06/20 09:12:53;;;;;;;13.63;9.57;;;;;;;30.53;31.53;101338.75;4982713;28;20053;-83
2023/06/20 09:15:22;;;;;;;13.35;9.70;;;;;;;30.29;32.08;101309.91;4972587;28;20084;-84
2023/06/20 09:17:51;;;;;;;13.88;9.73;;;;;;;29.66;32.51;101202.38;4978860;28;20125;-84
2023/06/20 09:20:19;;;;;;;11.55;10.32;;;;;;;30.53;31.95;101321.47;4991929;28;20426;-82
2023/06/20 09:22:46;;;;;;;15.13;10.40;;;;;;;30.09;31.69;101228.25;4987279;28;20050;-79
2023/06/20 09:25:19;;;;;;;14.38;9.68;;;;;;;29.63;32.72;101159.13;4970639;28;20042;-83
2023/06/20 09:27:47;;;;;;;13.02;10.32;;;;;;;30.00;30.63;101171.22;4994059;28;20140;-83
2023/06/20 09:30:16;;;;;;;15.82;10.70;;;;;;;30.29;31.02;101238.69;4980612;28;20072;-83
2023/06/20 09:32:47;;;;;;;11.38;10.18;;;;;;;30.09;30.96;101198.16;4978097;28;20045;-83
2023/06/20 09:35:15;;;;;;;13.32;9.38;;;;;;;30.62;31.92;101281.63;4982580;28;20072;-84
2023/06/20 09:37:49;;;;;;;12.65;10.07;;;;;;;30.17;31.38;101195.81;4978885;28;20270;-83
2023/06/20 09:40:20;;;;;;;12.75;9.50;;;;;;;30.06;31.40;101174.84;4988021;28;20479;-83
2023/06/20 09:42:47;;;;;;;;;;;;;;;31.03;31.17;101317.78;4984776;28;20045;-83
2023/06/20 09:45:16;;;;;;;13.70;9.45;;;;;;;30.77;31.08;101268.09;4995498;28;19921;-83
2023/06/20 09:47:45;;;;;;;12.00;9.88;;;;;;;31.18;31.25;101320.69;4979336;28;20045;-83
2023/06/20 09:50:19;;;;;;;11.00;9.32;;;;;;;31.17;31.65;101277.91;4978234;28;20414;-84
2023/06/20 09:53:03;;;;;;;16.63;10.05;;;;;;;30.50;30.28;101152.16;5005082;28;20192;-83
2023/06/20 09:55:35;;;;;;;15.35;10.10;;;;;;;30.92;30.65;101215.41;4974381;28;20041;-83
2023/06/20 09:58:04;;;;;;;14.30;9.60;;;;;;;31.45;31.11;101296.06;4978103;28;20076;-85
2023/06/20 10:00:35;;;;;;;16.77;9.98;;;;;;;31.39;30.92;101274.31;5000190;28;20103;-83
2023/06/20 10:03:10;;;;;;;12.57;9.52;;;;;;;31.66;30.36;101302.56;4976718;28;20349;-83
2023/06/20 10:05:39;;;;;;;16.88;11.02;;;;;;;31.54;30.66;101307.41;4973314;28;20050;-83
2023/06/20 10:08:07;;;;;;;13.70;10.60;;;;;;;30.59;30.57;101135.00;4984654;28;20086;-83
2023/06/20 10:10:36;;;;;;;16.50;10.73;;;;;;;31.60;30.30;101281.66;4977862;28;20359;-83
2023/06/20 10:13:04;;;;;;;12.38;10.27;;;;;;;31.46;30.56;101231.88;4993945;28;20487;-83
2023/06/20 10:15:32;;;;;;;16.65;10.90;;;;;;;31.66;31.79;101268.81;4980367;28;20045;-83
2023/06/20 10:17:59;;;;;;;19.05;11.80;;;;;;;31.49;31.64;101231.34;4984057;28;20058;-83
2023/06/20 10:20:37;;;;;;;16.40;10.85;;;;;;;31.43;31.82;101177.50;4979380;28;20046;-82
2023/06/20 10:23:07;;;;;;;17.85;11.63;;;;;;;31.54;31.98;101186.66;4993932;28;20049;-82
2023/06/20 10:25:52;;;;;;;13.55;11.52;;;;;;;31.81;30.74;101226.94;4996851;28;20552;-82
2023/06/20 10:28:20;;;;;;;18.83;12.05;;;;;;;31.65;31.49;101180.19;4976527;28;20385;-82
2023/06/20 10:30:50;;;;;;;12.27;10.95;;;;;;;32.49;31.13;101302.13;4992938;28;20511;-82
2023/06/20 10:33:24;;;;;;;16.45;10.68;;;;;;;32.48;30.36;101300.47;4977681;28;20057;-82
2023/06/20 10:36:08;;;;;;;14.43;10.52;;;;;;;32.71;29.89;101295.66;4985645;28;20814;-83
2023/06/20 10:38:40;;;;;;;19.33;11.80;;;;;;;32.35;30.41;101205.59;4983912;28;20471;-83
2023/06/20 10:41:15;;;;;;;16.77;10.75;;;;;;;32.98;29.40;101293.53;4985328;28;20232;-86
2023/06/20 10:43:55;;;;;;;13.75;10.90;;;;;;;32.82;28.96;101285.50;4987272;28;20045;-85
2023/06/20 10:46:48;;;;;;;17.00;10.82;;;;;;;32.30;29.88;101180.00;4983200;28;20041;-85
2023/06/20 10:49:15;;;;;;;18.88;11.10;;;;;;;32.62;30.88;101209.28;4977809;28;20436;-85
2023/06/20 10:51:57;;;;;;;12.13;10.75;;;;;;;32.42;28.65;101172.38;4962850;28;20058;-84
2023/06/20 10:54:36;;;;;;;12.20;10.18;;;;;;;33.07;29.53;101249.06;4981438;28;20129;-84
2023/06/20 10:57:04;;;;;;;14.43;10.95;;;;;;;32.96;29.50;101216.03;4982304;28;20069;-83
2023/06/20 10:59:31;;;;;;;15.75;11.02;;;;;;;33.28;29.23;101250.75;4990401;28;20385;-83
2023/06/20 11:02:01;;;;;;;15.27;10.63;;;;;;;33.67;29.39;101291.56;4998594;28;20060;-84
2023/06/20 11:04:28;;;;;;;16.30;11.23;;;;;;;33.97;27.77;101282.44;5007098;28;20124;-83
2023/06/20 11:06:56;;;;;;;14.93;10.55;;;;;;;33.77;28.80;101252.19;5006405;28;20045;-83
2023/06/20 11:09:23;;;;;;;16.92;11.43;;;;;;;33.78;28.47;101201.50;4989996;28;20403;-83
2023/06/20 11:11:51;;;;;;;16.35;10.95;;;;;;;34.22;28.80;101256.78;5002610;28;20228;-83
2023/06/20 11:14:20;;;;;;;15.80;11.20;;;;;;;33.49;28.33;101135.19;4986386;28;20049;-82
2023/06/20 11:16:48;;;;;;;13.18;10.90;;;;;;;33.63;27.40;101186.66;4980759;28;20539;-83
2023/06/20 11:19:21;;;;;;;;;;;;;;;34.11;27.48;101273.66;4986546;28;20046;-84
2023/06/20 11:21:52;;;;;;;14.45;11.27;;;;;;;33.43;27.62;101142.63;5006336;28;20302;-83
2023/06/20 11:24:24;;;;;;;13.55;11.40;;;;;;;33.64;28.36;101146.19;4998415;28;20178;-83
2023/06/20 11:26:51;;;;;;;17.02;12.00;;;;;;;34.18;27.83;101208.88;5001847;28;20125;-83
2023/06/20 11:29:18;;;;;;;14.50;10.65;;;;;;;33.96;28.02;101172.53;5002874;28;20488;-83